sensor_id;sensor_type;location;lat;lon;timestamp;P1;durP1;ratioP1;P2;durP2;ratioP2
4652;SDS011;9900;48.738;9.306;2023-06-24T00:00:41;6.40;;;4.87;;
4652;SDS011;9900;48.738;9.306;2023-06-24T00:03:10;7.50;;;5.23;;
4652;SDS011;9900;48.738;9.306;2023-06-24T00:05:39;5.93;;;4.27;;
4652;SDS011;9900;48.738;9.306;2023-06-24T00:08:13;6.70;;;4.33;;
4652;SDS011;9900;48.738;9.306;2023-06-24T00:10:43;6.03;;;4.60;;
4652;SDS011;9900;48.738;9.306;2023-06-24T00:13:12;6.20;;;5.03;;
4652;SDS011;9900;48.738;9.306;2023-06-24T00:15:41;5.83;;;5.23;;
4652;SDS011;9900;48.738;9.306;2023-06-24T00:18:10;6.97;;;4.70;;
4652;SDS011;9900;48.738;9.306;2023-06-24T00:20:39;5.90;;;4.77;;
4652;SDS011;9900;48.738;9.306;2023-06-24T00:23:10;8.53;;;5.20;;
4652;SDS011;9900;48.738;9.306;2023-06-24T00:25:43;7.63;;;4.70;;
4652;SDS011;9900;48.738;9.306;2023-06-24T00:28:12;8.80;;;5.10;;
4652;SDS011;9900;48.738;9.306;2023-06-24T00:30:41;6.97;;;5.10;;
4652;SDS011;9900;48.738;9.306;2023-06-24T00:33:10;5.63;;;5.10;;
4652;SDS011;9900;48.738;9.306;2023-06-24T00:35:40;6.60;;;4.87;;
4652;SDS011;9900;48.738;9.306;2023-06-24T00:38:10;8.93;;;5.57;;
4652;SDS011;9900;48.738;9.306;2023-06-24T00:40:39;6.40;;;5.20;;
4652;SDS011;9900;48.738;9.306;2023-06-24T00:43:09;5.67;;;4.80;;
4652;SDS011;9900;48.738;9.306;2023-06-24T00:45:38;8.67;;;5.03;;
4652;SDS011;9900;48.738;9.306;2023-06-24T00:48:08;5.60;;;4.50;;
4652;SDS011;9900;48.738;9.306;2023-06-24T00:50:37;10.90;;;5.27;;
4652;SDS011;9900;48.738;9.306;2023-06-24T00:53:09;6.73;;;4.93;;
4652;SDS011;9900;48.738;9.306;2023-06-24T00:55:39;5.00;;;4.50;;
4652;SDS011;9900;48.738;9.306;2023-06-24T00:58:08;6.57;;;4.30;;
4652;SDS011;9900;48.738;9.306;2023-06-24T01:00:38;8.70;;;4.60;;
4652;SDS011;9900;48.738;9.306;2023-06-24T01:03:08;6.77;;;5.00;;
4652;SDS011;9900;48.738;9.306;2023-06-24T01:05:38;9.80;;;5.00;;
4652;SDS011;9900;48.738;9.306;2023-06-24T01:08:08;4.93;;;4.43;;
4652;SDS011;9900;48.738;9.306;2023-06-24T01:10:42;5.03;;;4.50;;
4652;SDS011;9900;48.738;9.306;2023-06-24T01:13:13;6.63;;;5.23;;
4652;SDS011;9900;48.738;9.306;2023-06-24T01:15:41;9.07;;;5.27;;
4652;SDS011;9900;48.738;9.306;2023-06-24T01:18:11;7.33;;;4.53;;
4652;SDS011;9900;48.738;9.306;2023-06-24T01:20:47;6.67;;;4.87;;
4652;SDS011;9900;48.738;9.306;2023-06-24T01:26:19;5.97;;;5.17;;
4652;SDS011;9900;48.738;9.306;2023-06-24T01:31:51;8.07;;;5.37;;
4652;SDS011;9900;48.738;9.306;2023-06-24T01:34:23;7.37;;;4.70;;
4652;SDS011;9900;48.738;9.306;2023-06-24T01:36:57;9.20;;;6.30;;
4652;SDS011;9900;48.738;9.306;2023-06-24T01:39:30;6.57;;;4.83;;
4652;SDS011;9900;48.738;9.306;2023-06-24T01:42:02;7.17;;;4.87;;
4652;SDS011;9900;48.738;9.306;2023-06-24T01:44:36;5.00;;;4.50;;
4652;SDS011;9900;48.738;9.306;2023-06-24T01:47:07;7.20;;;5.37;;
4652;SDS011;9900;48.738;9.306;2023-06-24T01:49:38;5.90;;;5.30;;
4652;SDS011;9900;48.738;9.306;2023-06-24T01:52:09;6.50;;;4.90;;
4652;SDS011;9900;48.738;9.306;2023-06-24T01:54:38;7.70;;;5.40;;
4652;SDS011;9900;48.738;9.306;2023-06-24T01:57:08;6.40;;;4.93;;
4652;SDS011;9900;48.738;9.306;2023-06-24T01:59:39;8.57;;;5.47;;
4652;SDS011;9900;48.738;9.306;2023-06-24T02:02:10;7.37;;;5.10;;
4652;SDS011;9900;48.738;9.306;2023-06-24T02:04:40;8.97;;;6.37;;
4652;SDS011;9900;48.738;9.306;2023-06-24T02:07:09;6.57;;;5.27;;
4652;SDS011;9900;48.738;9.306;2023-06-24T02:09:38;13.13;;;5.80;;
4652;SDS011;9900;48.738;9.306;2023-06-24T02:12:09;7.60;;;5.37;;
4652;SDS011;9900;48.738;9.306;2023-06-24T02:14:39;10.43;;;4.97;;
4652;SDS011;9900;48.738;9.306;2023-06-24T02:17:08;5.93;;;5.03;;
4652;SDS011;9900;48.738;9.306;2023-06-24T02:19:39;6.90;;;5.37;;
4652;SDS011;9900;48.738;9.306;2023-06-24T02:22:09;8.10;;;5.87;;
4652;SDS011;9900;48.738;9.306;2023-06-24T02:24:38;6.83;;;5.50;;
4652;SDS011;9900;48.738;9.306;2023-06-24T02:27:08;6.80;;;5.80;;
4652;SDS011;9900;48.738;9.306;2023-06-24T02:29:37;7.17;;;5.37;;
4652;SDS011;9900;48.738;9.306;2023-06-24T02:32:08;11.50;;;6.23;;
4652;SDS011;9900;48.738;9.306;2023-06-24T02:34:38;6.80;;;4.90;;
4652;SDS011;9900;48.738;9.306;2023-06-24T02:37:07;6.70;;;5.43;;
4652;SDS011;9900;48.738;9.306;2023-06-24T02:39:36;7.10;;;5.80;;
4652;SDS011;9900;48.738;9.306;2023-06-24T02:42:11;6.50;;;5.60;;
4652;SDS011;9900;48.738;9.306;2023-06-24T02:44:40;7.80;;;5.60;;
4652;SDS011;9900;48.738;9.306;2023-06-24T02:47:10;6.10;;;5.13;;
4652;SDS011;9900;48.738;9.306;2023-06-24T02:49:41;5.90;;;5.30;;
4652;SDS011;9900;48.738;9.306;2023-06-24T02:52:15;5.43;;;4.73;;
4652;SDS011;9900;48.738;9.306;2023-06-24T02:54:44;12.13;;;5.43;;
4652;SDS011;9900;48.738;9.306;2023-06-24T02:57:13;6.07;;;5.00;;
4652;SDS011;9900;48.738;9.306;2023-06-24T02:59:43;6.70;;;5.77;;
4652;SDS011;9900;48.738;9.306;2023-06-24T03:02:11;5.67;;;5.07;;
4652;SDS011;9900;48.738;9.306;2023-06-24T03:04:42;7.13;;;5.83;;
4652;SDS011;9900;48.738;9.306;2023-06-24T03:07:11;7.90;;;5.53;;
4652;SDS011;9900;48.738;9.306;2023-06-24T03:09:41;6.03;;;5.13;;
4652;SDS011;9900;48.738;9.306;2023-06-24T03:12:10;7.47;;;5.57;;
4652;SDS011;9900;48.738;9.306;2023-06-24T03:14:39;6.77;;;5.50;;
4652;SDS011;9900;48.738;9.306;2023-06-24T03:17:08;6.10;;;5.10;;
4652;SDS011;9900;48.738;9.306;2023-06-24T03:19:38;6.20;;;5.10;;
4652;SDS011;9900;48.738;9.306;2023-06-24T03:22:08;7.03;;;5.47;;
4652;SDS011;9900;48.738;9.306;2023-06-24T03:24:37;7.23;;;5.50;;
4652;SDS011;9900;48.738;9.306;2023-06-24T03:27:06;7.70;;;5.30;;
4652;SDS011;9900;48.738;9.306;2023-06-24T03:29:35;8.00;;;5.23;;
4652;SDS011;9900;48.738;9.306;2023-06-24T03:32:03;9.20;;;6.70;;
4652;SDS011;9900;48.738;9.306;2023-06-24T03:34:32;7.07;;;5.73;;
4652;SDS011;9900;48.738;9.306;2023-06-24T03:37:01;8.10;;;5.87;;
4652;SDS011;9900;48.738;9.306;2023-06-24T03:39:33;9.83;;;5.90;;
4652;SDS011;9900;48.738;9.306;2023-06-24T03:42:02;8.70;;;5.50;;
4652;SDS011;9900;48.738;9.306;2023-06-24T03:44:31;11.27;;;5.47;;
4652;SDS011;9900;48.738;9.306;2023-06-24T03:46:59;9.70;;;6.37;;
4652;SDS011;9900;48.738;9.306;2023-06-24T03:49:28;7.50;;;5.93;;
4652;SDS011;9900;48.738;9.306;2023-06-24T03:51:57;7.63;;;5.70;;
4652;SDS011;9900;48.738;9.306;2023-06-24T03:54:26;9.40;;;6.03;;
4652;SDS011;9900;48.738;9.306;2023-06-24T03:56:56;11.33;;;6.23;;
4652;SDS011;9900;48.738;9.306;2023-06-24T03:59:25;7.80;;;6.30;;
4652;SDS011;9900;48.738;9.306;2023-06-24T04:01:54;8.20;;;5.90;;
4652;SDS011;9900;48.738;9.306;2023-06-24T04:04:24;10.53;;;6.00;;
4652;SDS011;9900;48.738;9.306;2023-06-24T04:06:53;8.30;;;6.00;;
4652;SDS011;9900;48.738;9.306;2023-06-24T04:09:22;6.90;;;6.10;;
4652;SDS011;9900;48.738;9.306;2023-06-24T04:11:51;8.47;;;5.37;;
4652;SDS011;9900;48.738;9.306;2023-06-24T04:14:21;7.00;;;6.23;;
4652;SDS011;9900;48.738;9.306;2023-06-24T04:16:50;7.37;;;6.30;;
4652;SDS011;9900;48.738;9.306;2023-06-24T04:19:19;9.53;;;6.37;;
4652;SDS011;9900;48.738;9.306;2023-06-24T04:21:48;7.40;;;6.00;;
4652;SDS011;9900;48.738;9.306;2023-06-24T04:24:17;7.10;;;5.90;;
4652;SDS011;9900;48.738;9.306;2023-06-24T04:26:45;8.47;;;5.03;;
4652;SDS011;9900;48.738;9.306;2023-06-24T04:29:14;7.90;;;5.13;;
4652;SDS011;9900;48.738;9.306;2023-06-24T04:31:45;8.20;;;5.90;;
4652;SDS011;9900;48.738;9.306;2023-06-24T04:34:13;7.17;;;5.70;;
4652;SDS011;9900;48.738;9.306;2023-06-24T04:36:42;15.90;;;6.73;;
4652;SDS011;9900;48.738;9.306;2023-06-24T04:39:11;6.00;;;5.33;;
4652;SDS011;9900;48.738;9.306;2023-06-24T04:41:40;7.77;;;5.87;;
4652;SDS011;9900;48.738;9.306;2023-06-24T04:44:09;7.63;;;5.40;;
4652;SDS011;9900;48.738;9.306;2023-06-24T04:46:38;10.03;;;6.00;;
4652;SDS011;9900;48.738;9.306;2023-06-24T04:49:08;10.03;;;5.53;;
4652;SDS011;9900;48.738;9.306;2023-06-24T04:51:37;9.07;;;5.70;;
4652;SDS011;9900;48.738;9.306;2023-06-24T04:54:08;6.77;;;5.60;;
4652;SDS011;9900;48.738;9.306;2023-06-24T04:56:36;7.37;;;5.77;;
4652;SDS011;9900;48.738;9.306;2023-06-24T04:59:05;7.67;;;5.70;;
4652;SDS011;9900;48.738;9.306;2023-06-24T05:01:34;9.83;;;6.97;;
4652;SDS011;9900;48.738;9.306;2023-06-24T05:04:03;7.30;;;6.07;;
4652;SDS011;9900;48.738;9.306;2023-06-24T05:06:33;9.37;;;6.80;;
4652;SDS011;9900;48.738;9.306;2023-06-24T05:09:02;7.17;;;6.00;;
4652;SDS011;9900;48.738;9.306;2023-06-24T05:11:31;7.03;;;6.03;;
4652;SDS011;9900;48.738;9.306;2023-06-24T05:14:00;9.17;;;6.40;;
4652;SDS011;9900;48.738;9.306;2023-06-24T05:16:30;8.93;;;5.90;;
4652;SDS011;9900;48.738;9.306;2023-06-24T05:18:59;9.43;;;7.67;;
4652;SDS011;9900;48.738;9.306;2023-06-24T05:21:28;9.80;;;7.03;;
4652;SDS011;9900;48.738;9.306;2023-06-24T05:23:58;8.53;;;6.17;;
4652;SDS011;9900;48.738;9.306;2023-06-24T05:26:27;9.73;;;6.33;;
4652;SDS011;9900;48.738;9.306;2023-06-24T05:28:56;9.17;;;6.80;;
4652;SDS011;9900;48.738;9.306;2023-06-24T05:31:25;7.57;;;6.10;;
4652;SDS011;9900;48.738;9.306;2023-06-24T05:33:54;8.53;;;6.57;;
4652;SDS011;9900;48.738;9.306;2023-06-24T05:36:23;8.40;;;6.50;;
4652;SDS011;9900;48.738;9.306;2023-06-24T05:38:52;10.53;;;6.70;;
4652;SDS011;9900;48.738;9.306;2023-06-24T05:41:22;7.90;;;6.43;;
4652;SDS011;9900;48.738;9.306;2023-06-24T05:44:00;8.70;;;6.90;;
4652;SDS011;9900;48.738;9.306;2023-06-24T05:46:30;9.53;;;6.83;;
4652;SDS011;9900;48.738;9.306;2023-06-24T05:48:59;7.00;;;6.00;;
4652;SDS011;9900;48.738;9.306;2023-06-24T05:51:28;8.10;;;6.47;;
4652;SDS011;9900;48.738;9.306;2023-06-24T05:53:56;7.93;;;6.87;;
4652;SDS011;9900;48.738;9.306;2023-06-24T05:56:27;14.50;;;6.97;;
4652;SDS011;9900;48.738;9.306;2023-06-24T05:58:56;8.80;;;6.80;;
4652;SDS011;9900;48.738;9.306;2023-06-24T06:01:24;8.53;;;6.60;;
4652;SDS011;9900;48.738;9.306;2023-06-24T06:03:53;12.07;;;7.47;;
4652;SDS011;9900;48.738;9.306;2023-06-24T06:06:22;8.50;;;7.07;;
4652;SDS011;9900;48.738;9.306;2023-06-24T06:08:51;8.90;;;6.50;;
4652;SDS011;9900;48.738;9.306;2023-06-24T06:11:20;8.83;;;6.57;;
4652;SDS011;9900;48.738;9.306;2023-06-24T06:13:51;7.57;;;6.03;;
4652;SDS011;9900;48.738;9.306;2023-06-24T06:16:20;7.90;;;6.27;;
4652;SDS011;9900;48.738;9.306;2023-06-24T06:18:49;14.57;;;6.67;;
4652;SDS011;9900;48.738;9.306;2023-06-24T06:21:18;7.50;;;5.90;;
4652;SDS011;9900;48.738;9.306;2023-06-24T06:23:47;7.10;;;5.73;;
4652;SDS011;9900;48.738;9.306;2023-06-24T06:26:16;7.40;;;5.90;;
4652;SDS011;9900;48.738;9.306;2023-06-24T06:28:45;9.40;;;6.30;;
4652;SDS011;9900;48.738;9.306;2023-06-24T06:31:16;7.83;;;5.80;;
4652;SDS011;9900;48.738;9.306;2023-06-24T06:33:45;10.20;;;5.40;;
4652;SDS011;9900;48.738;9.306;2023-06-24T06:36:14;9.83;;;5.80;;
4652;SDS011;9900;48.738;9.306;2023-06-24T06:38:43;6.67;;;5.97;;
4652;SDS011;9900;48.738;9.306;2023-06-24T06:41:12;8.80;;;5.60;;
4652;SDS011;9900;48.738;9.306;2023-06-24T06:43:41;9.70;;;5.67;;
4652;SDS011;9900;48.738;9.306;2023-06-24T06:46:10;7.40;;;6.07;;
4652;SDS011;9900;48.738;9.306;2023-06-24T06:48:40;6.93;;;5.60;;
4652;SDS011;9900;48.738;9.306;2023-06-24T06:51:09;10.43;;;5.50;;
4652;SDS011;9900;48.738;9.306;2023-06-24T06:53:38;10.23;;;6.63;;
4652;SDS011;9900;48.738;9.306;2023-06-24T06:56:07;6.47;;;5.57;;
4652;SDS011;9900;48.738;9.306;2023-06-24T06:58:36;13.40;;;5.77;;
4652;SDS011;9900;48.738;9.306;2023-06-24T07:01:05;6.13;;;4.50;;
4652;SDS011;9900;48.738;9.306;2023-06-24T07:03:34;7.43;;;5.50;;
4652;SDS011;9900;48.738;9.306;2023-06-24T07:06:05;6.07;;;5.03;;
4652;SDS011;9900;48.738;9.306;2023-06-24T07:08:33;5.40;;;4.70;;
4652;SDS011;9900;48.738;9.306;2023-06-24T07:11:03;6.90;;;4.93;;
4652;SDS011;9900;48.738;9.306;2023-06-24T07:13:32;6.33;;;4.57;;
4652;SDS011;9900;48.738;9.306;2023-06-24T07:16:01;5.97;;;4.70;;
4652;SDS011;9900;48.738;9.306;2023-06-24T07:18:30;7.13;;;4.50;;
4652;SDS011;9900;48.738;9.306;2023-06-24T07:21:00;5.40;;;4.30;;
4652;SDS011;9900;48.738;9.306;2023-06-24T07:23:31;8.90;;;4.20;;
4652;SDS011;9900;48.738;9.306;2023-06-24T07:26:00;6.53;;;4.03;;
4652;SDS011;9900;48.738;9.306;2023-06-24T07:28:30;10.20;;;4.53;;
4652;SDS011;9900;48.738;9.306;2023-06-24T07:30:59;8.13;;;4.90;;
4652;SDS011;9900;48.738;9.306;2023-06-24T07:33:28;6.57;;;4.23;;
4652;SDS011;9900;48.738;9.306;2023-06-24T07:35:58;4.13;;;3.63;;
4652;SDS011;9900;48.738;9.306;2023-06-24T07:38:28;3.70;;;3.40;;
4652;SDS011;9900;48.738;9.306;2023-06-24T07:40:58;4.40;;;3.90;;
4652;SDS011;9900;48.738;9.306;2023-06-24T07:43:27;4.57;;;3.57;;
4652;SDS011;9900;48.738;9.306;2023-06-24T07:45:56;4.93;;;4.30;;
4652;SDS011;9900;48.738;9.306;2023-06-24T07:48:25;5.03;;;3.90;;
4652;SDS011;9900;48.738;9.306;2023-06-24T07:50:54;5.80;;;3.90;;
4652;SDS011;9900;48.738;9.306;2023-06-24T07:53:23;4.27;;;3.87;;
4652;SDS011;9900;48.738;9.306;2023-06-24T07:55:51;3.60;;;3.30;;
4652;SDS011;9900;48.738;9.306;2023-06-24T07:58:22;6.30;;;4.40;;
4652;SDS011;9900;48.738;9.306;2023-06-24T08:00:50;4.27;;;3.27;;
4652;SDS011;9900;48.738;9.306;2023-06-24T08:03:19;3.93;;;3.53;;
4652;SDS011;9900;48.738;9.306;2023-06-24T08:05:49;3.90;;;3.50;;
4652;SDS011;9900;48.738;9.306;2023-06-24T08:08:18;3.40;;;3.10;;
4652;SDS011;9900;48.738;9.306;2023-06-24T08:10:47;3.47;;;3.17;;
4652;SDS011;9900;48.738;9.306;2023-06-24T08:13:16;3.43;;;3.13;;
4652;SDS011;9900;48.738;9.306;2023-06-24T08:15:46;2.63;;;2.43;;
4652;SDS011;9900;48.738;9.306;2023-06-24T08:18:15;3.73;;;2.50;;
4652;SDS011;9900;48.738;9.306;2023-06-24T08:20:44;3.70;;;3.40;;
4652;SDS011;9900;48.738;9.306;2023-06-24T08:23:13;3.43;;;3.00;;
4652;SDS011;9900;48.738;9.306;2023-06-24T08:25:41;3.23;;;2.70;;
4652;SDS011;9900;48.738;9.306;2023-06-24T08:28:10;3.30;;;3.00;;
4652;SDS011;9900;48.738;9.306;2023-06-24T08:30:39;3.30;;;3.00;;
4652;SDS011;9900;48.738;9.306;2023-06-24T08:33:09;3.23;;;3.03;;
4652;SDS011;9900;48.738;9.306;2023-06-24T08:35:38;5.53;;;3.27;;
4652;SDS011;9900;48.738;9.306;2023-06-24T08:38:07;3.73;;;2.90;;
4652;SDS011;9900;48.738;9.306;2023-06-24T08:40:36;4.40;;;3.53;;
4652;SDS011;9900;48.738;9.306;2023-06-24T08:43:07;3.90;;;3.60;;
4652;SDS011;9900;48.738;9.306;2023-06-24T08:45:36;3.63;;;3.07;;
4652;SDS011;9900;48.738;9.306;2023-06-24T08:48:05;5.03;;;3.57;;
4652;SDS011;9900;48.738;9.306;2023-06-24T08:50:37;3.70;;;2.97;;
4652;SDS011;9900;48.738;9.306;2023-06-24T08:53:11;4.70;;;3.80;;
4652;SDS011;9900;48.738;9.306;2023-06-24T08:55:42;3.90;;;3.33;;
4652;SDS011;9900;48.738;9.306;2023-06-24T08:58:12;3.97;;;3.27;;
4652;SDS011;9900;48.738;9.306;2023-06-24T09:00:42;3.50;;;3.07;;
4652;SDS011;9900;48.738;9.306;2023-06-24T09:03:11;2.87;;;2.67;;
4652;SDS011;9900;48.738;9.306;2023-06-24T09:05:41;3.97;;;2.97;;
4652;SDS011;9900;48.738;9.306;2023-06-24T09:08:11;3.80;;;3.50;;
4652;SDS011;9900;48.738;9.306;2023-06-24T09:10:40;3.50;;;3.20;;
4652;SDS011;9900;48.738;9.306;2023-06-24T09:13:09;9.33;;;2.93;;
4652;SDS011;9900;48.738;9.306;2023-06-24T09:15:38;4.77;;;2.97;;
4652;SDS011;9900;48.738;9.306;2023-06-24T09:18:07;3.87;;;3.57;;
4652;SDS011;9900;48.738;9.306;2023-06-24T09:20:42;4.70;;;3.00;;
4652;SDS011;9900;48.738;9.306;2023-06-24T09:23:12;3.40;;;3.10;;
4652;SDS011;9900;48.738;9.306;2023-06-24T09:25:41;3.10;;;2.90;;
4652;SDS011;9900;48.738;9.306;2023-06-24T09:28:11;5.43;;;3.10;;
4652;SDS011;9900;48.738;9.306;2023-06-24T09:30:41;3.70;;;2.90;;
4652;SDS011;9900;48.738;9.306;2023-06-24T09:33:11;3.10;;;2.80;;
4652;SDS011;9900;48.738;9.306;2023-06-24T09:35:42;4.53;;;2.93;;
4652;SDS011;9900;48.738;9.306;2023-06-24T09:38:12;3.23;;;2.90;;
4652;SDS011;9900;48.738;9.306;2023-06-24T09:40:45;3.30;;;2.50;;
4652;SDS011;9900;48.738;9.306;2023-06-24T09:43:19;4.43;;;2.80;;
4652;SDS011;9900;48.738;9.306;2023-06-24T09:45:48;3.33;;;2.63;;
4652;SDS011;9900;48.738;9.306;2023-06-24T09:48:17;3.10;;;2.80;;
4652;SDS011;9900;48.738;9.306;2023-06-24T09:50:47;4.80;;;3.47;;
4652;SDS011;9900;48.738;9.306;2023-06-24T09:53:17;3.90;;;3.20;;
4652;SDS011;9900;48.738;9.306;2023-06-24T09:55:46;3.97;;;2.90;;
4652;SDS011;9900;48.738;9.306;2023-06-24T09:58:15;5.20;;;2.20;;
4652;SDS011;9900;48.738;9.306;2023-06-24T10:00:45;3.37;;;2.90;;
4652;SDS011;9900;48.738;9.306;2023-06-24T10:03:14;3.00;;;2.80;;
4652;SDS011;9900;48.738;9.306;2023-06-24T10:05:44;2.77;;;2.50;;
4652;SDS011;9900;48.738;9.306;2023-06-24T10:08:14;8.83;;;3.53;;
4652;SDS011;9900;48.738;9.306;2023-06-24T10:10:43;3.47;;;3.00;;
4652;SDS011;9900;48.738;9.306;2023-06-24T10:13:12;2.97;;;2.67;;
4652;SDS011;9900;48.738;9.306;2023-06-24T10:15:41;2.70;;;2.50;;
4652;SDS011;9900;48.738;9.306;2023-06-24T10:21:04;4.43;;;3.20;;
4652;SDS011;9900;48.738;9.306;2023-06-24T10:23:39;3.17;;;2.97;;
4652;SDS011;9900;48.738;9.306;2023-06-24T10:26:09;3.13;;;2.83;;
4652;SDS011;9900;48.738;9.306;2023-06-24T10:31:50;2.90;;;2.70;;
4652;SDS011;9900;48.738;9.306;2023-06-24T10:37:08;3.20;;;2.90;;
4652;SDS011;9900;48.738;9.306;2023-06-24T10:39:40;2.80;;;2.47;;
4652;SDS011;9900;48.738;9.306;2023-06-24T10:42:26;3.27;;;2.97;;
4652;SDS011;9900;48.738;9.306;2023-06-24T10:44:57;3.30;;;3.00;;
4652;SDS011;9900;48.738;9.306;2023-06-24T10:47:26;4.43;;;2.63;;
4652;SDS011;9900;48.738;9.306;2023-06-24T10:49:56;3.93;;;3.20;;
4652;SDS011;9900;48.738;9.306;2023-06-24T10:52:25;3.23;;;3.03;;
4652;SDS011;9900;48.738;9.306;2023-06-24T10:54:57;2.70;;;2.50;;
4652;SDS011;9900;48.738;9.306;2023-06-24T10:57:27;3.20;;;2.87;;
4652;SDS011;9900;48.738;9.306;2023-06-24T10:59:56;3.10;;;2.80;;
4652;SDS011;9900;48.738;9.306;2023-06-24T11:02:26;3.80;;;3.00;;
4652;SDS011;9900;48.738;9.306;2023-06-24T11:04:56;3.10;;;2.70;;
4652;SDS011;9900;48.738;9.306;2023-06-24T11:07:27;2.67;;;2.47;;
4652;SDS011;9900;48.738;9.306;2023-06-24T11:10:00;3.40;;;2.57;;
4652;SDS011;9900;48.738;9.306;2023-06-24T11:12:31;2.70;;;2.50;;
4652;SDS011;9900;48.738;9.306;2023-06-24T11:15:02;2.70;;;2.50;;
4652;SDS011;9900;48.738;9.306;2023-06-24T11:17:32;3.73;;;3.23;;
4652;SDS011;9900;48.738;9.306;2023-06-24T11:20:05;3.93;;;2.23;;
4652;SDS011;9900;48.738;9.306;2023-06-24T11:22:35;4.20;;;2.93;;
4652;SDS011;9900;48.738;9.306;2023-06-24T11:25:06;3.67;;;2.50;;
4652;SDS011;9900;48.738;9.306;2023-06-24T11:27:39;2.73;;;2.53;;
4652;SDS011;9900;48.738;9.306;2023-06-24T11:30:08;3.93;;;2.50;;
4652;SDS011;9900;48.738;9.306;2023-06-24T11:32:37;4.70;;;2.60;;
4652;SDS011;9900;48.738;9.306;2023-06-24T11:35:07;2.70;;;2.50;;
4652;SDS011;9900;48.738;9.306;2023-06-24T11:37:40;2.40;;;2.20;;
4652;SDS011;9900;48.738;9.306;2023-06-24T11:40:11;3.50;;;3.03;;
4652;SDS011;9900;48.738;9.306;2023-06-24T11:42:41;3.10;;;2.73;;
4652;SDS011;9900;48.738;9.306;2023-06-24T11:45:12;2.77;;;2.57;;
4652;SDS011;9900;48.738;9.306;2023-06-24T11:47:43;3.37;;;2.80;;
4652;SDS011;9900;48.738;9.306;2023-06-24T11:50:12;7.53;;;2.40;;
4652;SDS011;9900;48.738;9.306;2023-06-24T11:52:41;2.97;;;2.40;;
4652;SDS011;9900;48.738;9.306;2023-06-24T11:55:15;2.70;;;2.50;;
4652;SDS011;9900;48.738;9.306;2023-06-24T11:57:49;3.10;;;2.50;;
4652;SDS011;9900;48.738;9.306;2023-06-24T12:00:21;2.57;;;2.37;;
4652;SDS011;9900;48.738;9.306;2023-06-24T12:02:55;5.80;;;2.97;;
4652;SDS011;9900;48.738;9.306;2023-06-24T12:05:25;3.13;;;2.83;;
4652;SDS011;9900;48.738;9.306;2023-06-24T12:07:57;3.07;;;2.77;;
4652;SDS011;9900;48.738;9.306;2023-06-24T12:10:28;2.83;;;2.60;;
4652;SDS011;9900;48.738;9.306;2023-06-24T12:13:00;3.40;;;3.10;;
4652;SDS011;9900;48.738;9.306;2023-06-24T12:15:29;2.60;;;2.40;;
4652;SDS011;9900;48.738;9.306;2023-06-24T12:17:58;4.80;;;2.60;;
4652;SDS011;9900;48.738;9.306;2023-06-24T12:20:28;3.83;;;2.90;;
4652;SDS011;9900;48.738;9.306;2023-06-24T12:23:03;2.63;;;2.43;;
4652;SDS011;9900;48.738;9.306;2023-06-24T12:25:33;4.40;;;2.13;;
4652;SDS011;9900;48.738;9.306;2023-06-24T12:28:02;2.53;;;2.33;;
4652;SDS011;9900;48.738;9.306;2023-06-24T12:30:31;2.90;;;2.53;;
4652;SDS011;9900;48.738;9.306;2023-06-24T12:33:01;9.03;;;2.53;;
4652;SDS011;9900;48.738;9.306;2023-06-24T12:35:30;2.80;;;2.60;;
4652;SDS011;9900;48.738;9.306;2023-06-24T12:37:59;2.80;;;2.60;;
4652;SDS011;9900;48.738;9.306;2023-06-24T12:40:28;2.60;;;2.40;;
4652;SDS011;9900;48.738;9.306;2023-06-24T12:42:58;2.90;;;2.63;;
4652;SDS011;9900;48.738;9.306;2023-06-24T12:45:27;7.20;;;2.70;;
4652;SDS011;9900;48.738;9.306;2023-06-24T12:47:56;8.40;;;2.60;;
4652;SDS011;9900;48.738;9.306;2023-06-24T12:50:24;3.10;;;2.70;;
4652;SDS011;9900;48.738;9.306;2023-06-24T12:52:53;4.67;;;2.50;;
4652;SDS011;9900;48.738;9.306;2023-06-24T12:55:22;3.00;;;2.70;;
4652;SDS011;9900;48.738;9.306;2023-06-24T12:57:51;3.60;;;3.07;;
4652;SDS011;9900;48.738;9.306;2023-06-24T13:00:22;5.63;;;3.53;;
4652;SDS011;9900;48.738;9.306;2023-06-24T13:02:51;7.93;;;2.93;;
4652;SDS011;9900;48.738;9.306;2023-06-24T13:05:20;3.27;;;2.97;;
4652;SDS011;9900;48.738;9.306;2023-06-24T13:07:49;3.10;;;2.83;;
4652;SDS011;9900;48.738;9.306;2023-06-24T13:10:18;3.03;;;2.73;;
4652;SDS011;9900;48.738;9.306;2023-06-24T13:12:48;3.03;;;2.80;;
4652;SDS011;9900;48.738;9.306;2023-06-24T13:15:18;2.70;;;2.50;;
4652;SDS011;9900;48.738;9.306;2023-06-24T13:17:49;2.97;;;2.77;;
4652;SDS011;9900;48.738;9.306;2023-06-24T13:20:18;6.50;;;3.17;;
4652;SDS011;9900;48.738;9.306;2023-06-24T13:22:46;3.20;;;2.90;;
4652;SDS011;9900;48.738;9.306;2023-06-24T13:25:15;4.50;;;3.00;;
4652;SDS011;9900;48.738;9.306;2023-06-24T13:27:44;3.70;;;3.10;;
4652;SDS011;9900;48.738;9.306;2023-06-24T13:30:14;2.83;;;2.60;;
4652;SDS011;9900;48.738;9.306;2023-06-24T13:32:44;3.13;;;2.83;;
4652;SDS011;9900;48.738;9.306;2023-06-24T13:35:14;4.00;;;2.87;;
4652;SDS011;9900;48.738;9.306;2023-06-24T13:37:43;3.17;;;2.87;;
4652;SDS011;9900;48.738;9.306;2023-06-24T13:40:12;2.90;;;2.67;;
4652;SDS011;9900;48.738;9.306;2023-06-24T13:42:41;3.17;;;2.47;;
4652;SDS011;9900;48.738;9.306;2023-06-24T13:45:10;2.73;;;2.53;;
4652;SDS011;9900;48.738;9.306;2023-06-24T13:47:39;5.90;;;2.53;;
4652;SDS011;9900;48.738;9.306;2023-06-24T13:50:08;2.53;;;2.33;;
4652;SDS011;9900;48.738;9.306;2023-06-24T13:52:39;5.93;;;3.27;;
4652;SDS011;9900;48.738;9.306;2023-06-24T13:55:08;3.20;;;2.90;;
4652;SDS011;9900;48.738;9.306;2023-06-24T13:57:37;4.53;;;2.60;;
4652;SDS011;9900;48.738;9.306;2023-06-24T14:00:06;3.73;;;2.77;;
4652;SDS011;9900;48.738;9.306;2023-06-24T14:02:36;2.97;;;2.57;;
4652;SDS011;9900;48.738;9.306;2023-06-24T14:05:06;4.57;;;2.70;;
4652;SDS011;9900;48.738;9.306;2023-06-24T14:07:35;2.47;;;2.20;;
4652;SDS011;9900;48.738;9.306;2023-06-24T14:10:06;3.17;;;2.87;;
4652;SDS011;9900;48.738;9.306;2023-06-24T14:12:36;3.10;;;2.87;;
4652;SDS011;9900;48.738;9.306;2023-06-24T14:15:06;3.87;;;2.80;;
4652;SDS011;9900;48.738;9.306;2023-06-24T14:17:36;3.30;;;2.47;;
4652;SDS011;9900;48.738;9.306;2023-06-24T14:20:06;3.00;;;2.80;;
4652;SDS011;9900;48.738;9.306;2023-06-24T14:22:36;3.03;;;2.83;;
4652;SDS011;9900;48.738;9.306;2023-06-24T14:25:06;2.63;;;2.43;;
4652;SDS011;9900;48.738;9.306;2023-06-24T14:27:35;3.00;;;2.63;;
4652;SDS011;9900;48.738;9.306;2023-06-24T14:30:05;3.17;;;2.87;;
4652;SDS011;9900;48.738;9.306;2023-06-24T14:32:34;3.20;;;2.90;;
4652;SDS011;9900;48.738;9.306;2023-06-24T14:35:04;3.23;;;2.93;;
4652;SDS011;9900;48.738;9.306;2023-06-24T14:37:33;2.70;;;2.50;;
4652;SDS011;9900;48.738;9.306;2023-06-24T14:40:02;3.03;;;2.73;;
4652;SDS011;9900;48.738;9.306;2023-06-24T14:42:33;4.20;;;2.90;;
4652;SDS011;9900;48.738;9.306;2023-06-24T14:45:02;3.33;;;3.00;;
4652;SDS011;9900;48.738;9.306;2023-06-24T14:47:31;4.37;;;2.70;;
4652;SDS011;9900;48.738;9.306;2023-06-24T14:50:00;2.60;;;2.40;;
4652;SDS011;9900;48.738;9.306;2023-06-24T14:52:29;3.13;;;2.87;;
4652;SDS011;9900;48.738;9.306;2023-06-24T14:54:58;3.27;;;3.07;;
4652;SDS011;9900;48.738;9.306;2023-06-24T14:57:27;2.83;;;2.63;;
4652;SDS011;9900;48.738;9.306;2023-06-24T14:59:57;2.73;;;2.53;;
4652;SDS011;9900;48.738;9.306;2023-06-24T15:02:26;3.97;;;2.70;;
4652;SDS011;9900;48.738;9.306;2023-06-24T15:04:55;2.90;;;2.70;;
4652;SDS011;9900;48.738;9.306;2023-06-24T15:07:24;3.20;;;2.90;;
4652;SDS011;9900;48.738;9.306;2023-06-24T15:09:53;3.47;;;2.87;;
4652;SDS011;9900;48.738;9.306;2023-06-24T15:12:22;3.40;;;2.90;;
4652;SDS011;9900;48.738;9.306;2023-06-24T15:14:51;4.80;;;2.60;;
4652;SDS011;9900;48.738;9.306;2023-06-24T15:17:21;3.10;;;2.73;;
4652;SDS011;9900;48.738;9.306;2023-06-24T15:19:51;5.90;;;2.73;;
4652;SDS011;9900;48.738;9.306;2023-06-24T15:22:20;3.53;;;2.93;;
4652;SDS011;9900;48.738;9.306;2023-06-24T15:24:50;3.30;;;2.90;;
4652;SDS011;9900;48.738;9.306;2023-06-24T15:27:19;3.03;;;2.60;;
4652;SDS011;9900;48.738;9.306;2023-06-24T15:29:48;3.47;;;2.70;;
4652;SDS011;9900;48.738;9.306;2023-06-24T15:32:17;4.23;;;3.50;;
4652;SDS011;9900;48.738;9.306;2023-06-24T15:34:48;3.63;;;3.07;;
4652;SDS011;9900;48.738;9.306;2023-06-24T15:37:17;3.33;;;3.10;;
4652;SDS011;9900;48.738;9.306;2023-06-24T15:39:45;3.03;;;2.83;;
4652;SDS011;9900;48.738;9.306;2023-06-24T15:42:14;4.23;;;2.90;;
4652;SDS011;9900;48.738;9.306;2023-06-24T15:44:43;3.30;;;3.00;;